sensor_id;sensor_type;location;lat;lon;timestamp;pressure;altitude;pressure_sealevel;temperature;humidity
39141;BME280;24875;48.436;10.298;2024-01-10T00:01:53;96993.44;;;-3.98;100.00
39141;BME280;24875;48.436;10.298;2024-01-10T00:04:19;96992.50;;;-3.97;100.00
39141;BME280;24875;48.436;10.298;2024-01-10T00:06:46;96990.25;;;-4.03;100.00
39141;BME280;24875;48.436;10.298;2024-01-10T00:09:12;96994.91;;;-4.11;100.00
39141;BME280;24875;48.436;10.298;2024-01-10T00:11:40;96990.81;;;-3.97;100.00
39141;BME280;24875;48.436;10.298;2024-01-10T00:14:07;96988.34;;;-4.00;100.00
39141;BME280;24875;48.436;10.298;2024-01-10T00:16:34;96999.41;;;-3.98;100.00
39141;BME280;24875;48.436;10.298;2024-01-10T00:19:01;96984.94;;;-4.00;100.00
39141;BME280;24875;48.436;10.298;2024-01-10T00:21:27;96988.06;;;-3.94;100.00
39141;BME280;24875;48.436;10.298;2024-01-10T00:23:54;96985.84;;;-4.01;100.00
39141;BME280;24875;48.436;10.298;2024-01-10T00:26:21;96985.09;;;-4.03;100.00
39141;BME280;24875;48.436;10.298;2024-01-10T00:28:48;96988.41;;;-3.83;100.00
39141;BME280;24875;48.436;10.298;2024-01-10T00:31:16;96989.81;;;-3.94;100.00
39141;BME280;24875;48.436;10.298;2024-01-10T00:33:42;96986.00;;;-4.04;100.00
39141;BME280;24875;48.436;10.298;2024-01-10T00:36:09;96984.78;;;-3.97;100.00
39141;BME280;24875;48.436;10.298;2024-01-10T00:38:36;96987.00;;;-3.90;100.00
39141;BME280;24875;48.436;10.298;2024-01-10T00:41:03;96989.50;;;-3.88;100.00
39141;BME280;24875;48.436;10.298;2024-01-10T00:43:29;96979.53;;;-3.94;100.00
39141;BME280;24875;48.436;10.298;2024-01-10T00:45:57;96974.84;;;-3.86;100.00
39141;BME280;24875;48.436;10.298;2024-01-10T00:48:23;96980.50;;;-3.97;100.00
39141;BME280;24875;48.436;10.298;2024-01-10T00:50:50;96973.09;;;-3.86;100.00
39141;BME280;24875;48.436;10.298;2024-01-10T00:53:16;96967.94;;;-3.86;100.00
39141;BME280;24875;48.436;10.298;2024-01-10T00:55:43;96972.25;;;-3.86;100.00
39141;BME280;24875;48.436;10.298;2024-01-10T00:58:09;96975.66;;;-3.86;100.00
39141;BME280;24875;48.436;10.298;2024-01-10T01:00:36;96975.91;;;-3.90;100.00
39141;BME280;24875;48.436;10.298;2024-01-10T01:03:06;96975.03;;;-3.91;100.00
39141;BME280;24875;48.436;10.298;2024-01-10T01:05:32;96974.66;;;-4.00;100.00
39141;BME280;24875;48.436;10.298;2024-01-10T01:07:59;96975.63;;;-4.03;100.00
39141;BME280;24875;48.436;10.298;2024-01-10T01:10:25;96972.97;;;-4.01;100.00
39141;BME280;24875;48.436;10.298;2024-01-10T01:12:52;96979.81;;;-4.00;100.00
39141;BME280;24875;48.436;10.298;2024-01-10T01:15:18;96985.72;;;-3.98;100.00
39141;BME280;24875;48.436;10.298;2024-01-10T01:17:45;96983.72;;;-4.10;100.00
39141;BME280;24875;48.436;10.298;2024-01-10T01:20:13;96981.88;;;-3.90;100.00
39141;BME280;24875;48.436;10.298;2024-01-10T01:22:39;96982.53;;;-4.03;100.00
39141;BME280;24875;48.436;10.298;2024-01-10T01:25:06;96973.84;;;-4.01;100.00
39141;BME280;24875;48.436;10.298;2024-01-10T01:27:34;96976.00;;;-4.10;100.00
39141;BME280;24875;48.436;10.298;2024-01-10T01:30:00;96984.66;;;-3.94;100.00
39141;BME280;24875;48.436;10.298;2024-01-10T01:32:27;96985.72;;;-3.98;100.00
39141;BME280;24875;48.436;10.298;2024-01-10T01:34:53;96984.66;;;-3.94;100.00
39141;BME280;24875;48.436;10.298;2024-01-10T01:37:21;96982.50;;;-3.68;100.00
39141;BME280;24875;48.436;10.298;2024-01-10T01:39:47;96983.25;;;-3.83;100.00
39141;BME280;24875;48.436;10.298;2024-01-10T01:42:15;96981.88;;;-3.73;100.00
39141;BME280;24875;48.436;10.298;2024-01-10T01:44:41;96983.03;;;-3.78;100.00
39141;BME280;24875;48.436;10.298;2024-01-10T01:47:08;96982.94;;;-3.77;100.00
39141;BME280;24875;48.436;10.298;2024-01-10T01:49:35;96976.06;;;-3.76;100.00
39141;BME280;24875;48.436;10.298;2024-01-10T01:52:02;96977.31;;;-3.66;100.00
39141;BME280;24875;48.436;10.298;2024-01-10T01:54:30;96981.94;;;-3.56;100.00
39141;BME280;24875;48.436;10.298;2024-01-10T01:56:59;96977.34;;;-3.68;100.00
39141;BME280;24875;48.436;10.298;2024-01-10T01:59:25;96971.47;;;-3.70;100.00
39141;BME280;24875;48.436;10.298;2024-01-10T02:01:54;96975.38;;;-3.63;100.00
39141;BME280;24875;48.436;10.298;2024-01-10T02:04:22;96975.72;;;-3.69;100.00
39141;BME280;24875;48.436;10.298;2024-01-10T02:06:49;96969.00;;;-3.73;100.00
39141;BME280;24875;48.436;10.298;2024-01-10T02:09:15;96971.91;;;-3.79;100.00
39141;BME280;24875;48.436;10.298;2024-01-10T02:11:43;96971.91;;;-3.62;100.00
39141;BME280;24875;48.436;10.298;2024-01-10T02:14:10;96978.56;;;-3.58;100.00
39141;BME280;24875;48.436;10.298;2024-01-10T02:16:37;96975.91;;;-3.57;100.00
39141;BME280;24875;48.436;10.298;2024-01-10T02:19:18;96976.41;;;-3.32;100.00
39141;BME280;24875;48.436;10.298;2024-01-10T02:21:44;96979.56;;;-3.61;100.00
39141;BME280;24875;48.436;10.298;2024-01-10T02:24:10;96973.41;;;-3.75;100.00
39141;BME280;24875;48.436;10.298;2024-01-10T02:26:38;96978.66;;;-3.60;100.00
39141;BME280;24875;48.436;10.298;2024-01-10T02:29:05;96976.81;;;-3.74;100.00
39141;BME280;24875;48.436;10.298;2024-01-10T02:31:32;96973.78;;;-3.65;100.00
39141;BME280;24875;48.436;10.298;2024-01-10T02:33:58;96973.13;;;-3.52;100.00
39141;BME280;24875;48.436;10.298;2024-01-10T02:36:24;96975.41;;;-3.46;100.00
39141;BME280;24875;48.436;10.298;2024-01-10T02:38:51;96977.06;;;-3.62;100.00
39141;BME280;24875;48.436;10.298;2024-01-10T02:41:17;96967.50;;;-3.77;100.00
39141;BME280;24875;48.436;10.298;2024-01-10T02:43:45;96967.91;;;-3.67;100.00
39141;BME280;24875;48.436;10.298;2024-01-10T02:46:11;96969.50;;;-3.65;100.00
39141;BME280;24875;48.436;10.298;2024-01-10T02:48:38;96965.00;;;-3.62;100.00
39141;BME280;24875;48.436;10.298;2024-01-10T02:51:05;96960.78;;;-3.63;100.00
39141;BME280;24875;48.436;10.298;2024-01-10T02:53:31;96964.63;;;-3.54;100.00
39141;BME280;24875;48.436;10.298;2024-01-10T02:55:58;96965.63;;;-3.40;100.00
39141;BME280;24875;48.436;10.298;2024-01-10T02:58:24;96970.09;;;-3.60;100.00
39141;BME280;24875;48.436;10.298;2024-01-10T03:00:53;96960.34;;;-3.54;100.00
39141;BME280;24875;48.436;10.298;2024-01-10T03:03:19;96958.34;;;-3.65;100.00
39141;BME280;24875;48.436;10.298;2024-01-10T03:05:46;96968.44;;;-3.61;100.00
39141;BME280;24875;48.436;10.298;2024-01-10T03:08:12;96969.16;;;-3.76;100.00
39141;BME280;24875;48.436;10.298;2024-01-10T03:10:39;96958.78;;;-3.74;100.00
39141;BME280;24875;48.436;10.298;2024-01-10T03:13:05;96960.25;;;-3.69;100.00
39141;BME280;24875;48.436;10.298;2024-01-10T03:15:32;96955.84;;;-3.67;100.00
39141;BME280;24875;48.436;10.298;2024-01-10T03:18:00;96955.56;;;-3.44;100.00
39141;BME280;24875;48.436;10.298;2024-01-10T03:20:26;96954.88;;;-3.81;100.00
39141;BME280;24875;48.436;10.298;2024-01-10T03:22:53;96949.25;;;-3.89;100.00
39141;BME280;24875;48.436;10.298;2024-01-10T03:25:19;96951.69;;;-3.69;100.00
39141;BME280;24875;48.436;10.298;2024-01-10T03:27:46;96947.38;;;-3.69;100.00
39141;BME280;24875;48.436;10.298;2024-01-10T03:30:13;96951.84;;;-3.56;100.00
39141;BME280;24875;48.436;10.298;2024-01-10T03:32:39;96947.38;;;-3.52;100.00
39141;BME280;24875;48.436;10.298;2024-01-10T03:35:08;96951.84;;;-3.22;100.00
39141;BME280;24875;48.436;10.298;2024-01-10T03:37:35;96951.91;;;-3.40;100.00
39141;BME280;24875;48.436;10.298;2024-01-10T03:40:01;96950.75;;;-3.35;100.00
39141;BME280;24875;48.436;10.298;2024-01-10T03:42:28;96954.47;;;-3.23;100.00
39141;BME280;24875;48.436;10.298;2024-01-10T03:44:54;96949.56;;;-3.28;100.00
39141;BME280;24875;48.436;10.298;2024-01-10T03:47:21;96955.47;;;-3.26;100.00
39141;BME280;24875;48.436;10.298;2024-01-10T03:49:47;96952.13;;;-3.28;100.00
39141;BME280;24875;48.436;10.298;2024-01-10T03:52:15;96950.00;;;-3.20;100.00
39141;BME280;24875;48.436;10.298;2024-01-10T03:54:42;96949.13;;;-3.36;100.00
39141;BME280;24875;48.436;10.298;2024-01-10T03:57:08;96948.31;;;-3.21;100.00
39141;BME280;24875;48.436;10.298;2024-01-10T03:59:35;96950.84;;;-3.19;100.00
39141;BME280;24875;48.436;10.298;2024-01-10T04:02:01;96943.63;;;-3.13;100.00
39141;BME280;24875;48.436;10.298;2024-01-10T04:04:28;96948.72;;;-3.11;100.00
39141;BME280;24875;48.436;10.298;2024-01-10T04:06:54;96952.88;;;-3.09;100.00
39141;BME280;24875;48.436;10.298;2024-01-10T04:09:22;96953.31;;;-3.01;100.00
39141;BME280;24875;48.436;10.298;2024-01-10T04:11:48;96948.50;;;-3.24;100.00
39141;BME280;24875;48.436;10.298;2024-01-10T04:14:15;96946.50;;;-3.19;100.00
39141;BME280;24875;48.436;10.298;2024-01-10T04:16:41;96953.78;;;-3.10;100.00
39141;BME280;24875;48.436;10.298;2024-01-10T04:19:08;96951.28;;;-3.11;100.00
39141;BME280;24875;48.436;10.298;2024-01-10T04:21:34;96952.72;;;-3.06;100.00
39141;BME280;24875;48.436;10.298;2024-01-10T04:24:01;96956.88;;;-3.03;100.00
39141;BME280;24875;48.436;10.298;2024-01-10T04:26:28;96957.22;;;-2.94;100.00
39141;BME280;24875;48.436;10.298;2024-01-10T04:28:55;96953.31;;;-3.01;100.00
39141;BME280;24875;48.436;10.298;2024-01-10T04:31:21;96947.94;;;-3.13;100.00
39141;BME280;24875;48.436;10.298;2024-01-10T04:33:48;96952.97;;;-3.10;100.00
39141;BME280;24875;48.436;10.298;2024-01-10T04:36:14;96957.03;;;-3.06;100.00
39141;BME280;24875;48.436;10.298;2024-01-10T04:38:41;96956.88;;;-3.03;100.00
39141;BME280;24875;48.436;10.298;2024-01-10T04:41:07;96953.13;;;-2.98;100.00
39141;BME280;24875;48.436;10.298;2024-01-10T04:43:35;96948.09;;;-2.84;100.00
39141;BME280;24875;48.436;10.298;2024-01-10T04:46:01;96951.75;;;-2.88;100.00
39141;BME280;24875;48.436;10.298;2024-01-10T04:48:28;96957.91;;;-2.91;100.00
39141;BME280;24875;48.436;10.298;2024-01-10T04:50:54;96960.41;;;-2.89;100.00
39141;BME280;24875;48.436;10.298;2024-01-10T04:53:21;96958.69;;;-3.05;100.00
39141;BME280;24875;48.436;10.298;2024-01-10T04:55:48;96957.09;;;-2.91;100.00
39141;BME280;24875;48.436;10.298;2024-01-10T04:58:14;96960.13;;;-3.00;100.00
39141;BME280;24875;48.436;10.298;2024-01-10T05:00:42;96954.72;;;-2.79;100.00
39141;BME280;24875;48.436;10.298;2024-01-10T05:03:08;96962.06;;;-2.88;100.00
39141;BME280;24875;48.436;10.298;2024-01-10T05:05:35;96967.06;;;-2.85;100.00
39141;BME280;24875;48.436;10.298;2024-01-10T05:08:01;96959.19;;;-2.82;100.00
39141;BME280;24875;48.436;10.298;2024-01-10T05:10:27;96959.91;;;-2.80;100.00
39141;BME280;24875;48.436;10.298;2024-01-10T05:12:54;96956.56;;;-2.98;100.00
39141;BME280;24875;48.436;10.298;2024-01-10T05:15:20;96957.19;;;-3.09;100.00
39141;BME280;24875;48.436;10.298;2024-01-10T05:17:48;96956.78;;;-3.02;100.00
39141;BME280;24875;48.436;10.298;2024-01-10T05:20:15;96958.34;;;-3.15;100.00
39141;BME280;24875;48.436;10.298;2024-01-10T05:22:42;96962.81;;;-3.02;100.00
39141;BME280;24875;48.436;10.298;2024-01-10T05:25:09;96956.19;;;-3.07;100.00
39141;BME280;24875;48.436;10.298;2024-01-10T05:27:35;96964.19;;;-3.11;100.00
39141;BME280;24875;48.436;10.298;2024-01-10T05:30:01;96957.22;;;-2.94;100.00
39141;BME280;24875;48.436;10.298;2024-01-10T05:32:28;96956.31;;;-2.93;100.00
39141;BME280;24875;48.436;10.298;2024-01-10T05:34:56;96958.75;;;-2.90;100.00
39141;BME280;24875;48.436;10.298;2024-01-10T05:37:22;96959.06;;;-2.96;100.00
39141;BME280;24875;48.436;10.298;2024-01-10T05:39:49;96966.81;;;-2.96;100.00
39141;BME280;24875;48.436;10.298;2024-01-10T05:42:15;96964.84;;;-3.08;100.00
39141;BME280;24875;48.436;10.298;2024-01-10T05:44:42;96963.63;;;-3.01;100.00
39141;BME280;24875;48.436;10.298;2024-01-10T05:47:08;96962.19;;;-3.06;100.00
39141;BME280;24875;48.436;10.298;2024-01-10T05:49:34;96968.19;;;-3.06;100.00
39141;BME280;24875;48.436;10.298;2024-01-10T05:52:03;96959.63;;;-3.06;100.00
39141;BME280;24875;48.436;10.298;2024-01-10T05:54:29;96963.78;;;-3.04;100.00
39141;BME280;24875;48.436;10.298;2024-01-10T05:56:56;96965.38;;;-3.02;100.00
39141;BME280;24875;48.436;10.298;2024-01-10T05:59:22;96969.53;;;-2.99;100.00
39141;BME280;24875;48.436;10.298;2024-01-10T06:01:49;96972.44;;;-3.05;100.00
39141;BME280;24875;48.436;10.298;2024-01-10T06:04:15;96973.50;;;-3.09;100.00
39141;BME280;24875;48.436;10.298;2024-01-10T06:06:43;96975.22;;;-3.09;100.00
39141;BME280;24875;48.436;10.298;2024-01-10T06:09:11;96973.53;;;-2.94;100.00
39141;BME280;24875;48.436;10.298;2024-01-10T06:11:40;96972.84;;;-2.97;100.00
39141;BME280;24875;48.436;10.298;2024-01-10T06:14:07;96976.50;;;-3.01;100.00
39141;BME280;24875;48.436;10.298;2024-01-10T06:16:34;96979.53;;;-2.93;100.00
39141;BME280;24875;48.436;10.298;2024-01-10T06:19:00;96978.91;;;-2.98;100.00
39141;BME280;24875;48.436;10.298;2024-01-10T06:21:27;96978.25;;;-3.02;100.00
39141;BME280;24875;48.436;10.298;2024-01-10T06:23:53;96978.56;;;-3.07;100.00
39141;BME280;24875;48.436;10.298;2024-01-10T06:26:21;96975.94;;;-2.91;100.00
39141;BME280;24875;48.436;10.298;2024-01-10T06:28:48;96975.88;;;-2.89;100.00
39141;BME280;24875;48.436;10.298;2024-01-10T06:31:14;96976.94;;;-2.93;100.00
39141;BME280;24875;48.436;10.298;2024-01-10T06:33:41;96985.44;;;-2.91;100.00
39141;BME280;24875;48.436;10.298;2024-01-10T06:36:07;96984.38;;;-2.87;100.00
39141;BME280;24875;48.436;10.298;2024-01-10T06:38:33;96980.88;;;-2.86;100.00
39141;BME280;24875;48.436;10.298;2024-01-10T06:41:00;96987.34;;;-2.95;100.00
39141;BME280;24875;48.436;10.298;2024-01-10T06:43:28;96981.13;;;-2.91;100.00
39141;BME280;24875;48.436;10.298;2024-01-10T06:45:55;96982.53;;;-2.85;100.00
39141;BME280;24875;48.436;10.298;2024-01-10T06:48:21;96977.84;;;-2.94;100.00
39141;BME280;24875;48.436;10.298;2024-01-10T06:50:48;96985.06;;;-2.84;100.00
39141;BME280;24875;48.436;10.298;2024-01-10T06:53:14;96983.06;;;-2.79;100.00
39141;BME280;24875;48.436;10.298;2024-01-10T06:55:40;96993.31;;;-2.94;100.00
39141;BME280;24875;48.436;10.298;2024-01-10T06:58:07;96992.22;;;-2.73;100.00
39141;BME280;24875;48.436;10.298;2024-01-10T07:00:35;96992.50;;;-2.47;100.00
39141;BME280;24875;48.436;10.298;2024-01-10T07:03:03;96996.53;;;-2.57;100.00
39141;BME280;24875;48.436;10.298;2024-01-10T07:05:30;96988.09;;;-2.60;100.00
39141;BME280;24875;48.436;10.298;2024-01-10T07:07:57;96991.97;;;-2.52;100.00
39141;BME280;24875;48.436;10.298;2024-01-10T07:10:23;96986.97;;;-2.40;100.00
39141;BME280;24875;48.436;10.298;2024-01-10T07:12:52;96993.06;;;-2.41;100.00
39141;BME280;24875;48.436;10.298;2024-01-10T07:15:19;96998.94;;;-2.39;100.00
39141;BME280;24875;48.436;10.298;2024-01-10T07:17:47;96991.31;;;-2.25;100.00
39141;BME280;24875;48.436;10.298;2024-01-10T07:20:13;97000.63;;;-2.38;100.00
39141;BME280;24875;48.436;10.298;2024-01-10T07:22:40;96999.94;;;-2.41;100.00
39141;BME280;24875;48.436;10.298;2024-01-10T07:25:09;97005.09;;;-2.41;100.00
39141;BME280;24875;48.436;10.298;2024-01-10T07:27:39;97005.78;;;-2.38;100.00
39141;BME280;24875;48.436;10.298;2024-01-10T07:30:06;97002.13;;;-2.34;100.00
39141;BME280;24875;48.436;10.298;2024-01-10T07:32:38;97001.03;;;-2.45;100.00
39141;BME280;24875;48.436;10.298;2024-01-10T07:35:08;97010.69;;;-2.18;100.00
39141;BME280;24875;48.436;10.298;2024-01-10T07:37:35;97015.19;;;-2.37;100.00
39141;BME280;24875;48.436;10.298;2024-01-10T07:40:02;97016.75;;;-2.49;100.00
39141;BME280;24875;48.436;10.298;2024-01-10T07:42:30;97013.09;;;-2.45;100.00
39141;BME280;24875;48.436;10.298;2024-01-10T07:44:56;97026.13;;;-2.32;100.00
39141;BME280;24875;48.436;10.298;2024-01-10T07:47:23;97023.78;;;-2.21;100.00
39141;BME280;24875;48.436;10.298;2024-01-10T07:49:49;97036.69;;;-2.21;100.00
39141;BME280;24875;48.436;10.298;2024-01-10T07:52:17;97033.22;;;-2.04;100.00
39141;BME280;24875;48.436;10.298;2024-01-10T07:54:44;97044.13;;;-2.15;100.00
39141;BME280;24875;48.436;10.298;2024-01-10T07:57:11;97036.28;;;-2.13;100.00
39141;BME280;24875;48.436;10.298;2024-01-10T07:59:37;97045.63;;;-2.11;100.00
39141;BME280;24875;48.436;10.298;2024-01-10T08:02:04;97033.28;;;-2.06;100.00
39141;BME280;24875;48.436;10.298;2024-01-10T08:04:30;97035.03;;;-2.06;100.00
39141;BME280;24875;48.436;10.298;2024-01-10T08:06:56;97037.19;;;-1.99;100.00
39141;BME280;24875;48.436;10.298;2024-01-10T08:09:26;97033.28;;;-2.06;100.00
39141;BME280;24875;48.436;10.298;2024-01-10T08:11:52;97036.19;;;-2.27;100.00
39141;BME280;24875;48.436;10.298;2024-01-10T08:14:19;97050.00;;;-2.28;100.00
39141;BME280;24875;48.436;10.298;2024-01-10T08:16:45;97053.94;;;-2.06;100.00
39141;BME280;24875;48.436;10.298;2024-01-10T08:19:12;97050.78;;;-2.11;100.00
39141;BME280;24875;48.436;10.298;2024-01-10T08:21:38;97048.41;;;-2.15;100.00
39141;BME280;24875;48.436;10.298;2024-01-10T08:24:06;97044.53;;;-2.07;100.00
39141;BME280;24875;48.436;10.298;2024-01-10T08:26:33;97050.88;;;-1.97;100.00
39141;BME280;24875;48.436;10.298;2024-01-10T08:29:00;97054.78;;;-2.05;100.00
39141;BME280;24875;48.436;10.298;2024-01-10T08:31:27;97056.13;;;-2.14;100.00
39141;BME280;24875;48.436;10.298;2024-01-10T08:33:54;97061.91;;;-2.26;100.00
39141;BME280;24875;48.436;10.298;2024-01-10T08:36:22;97054.84;;;-2.07;100.00
39141;BME280;24875;48.436;10.298;2024-01-10T08:38:49;97065.59;;;-1.99;100.00
39141;BME280;24875;48.436;10.298;2024-01-10T08:41:16;97067.28;;;-1.98;100.00
39141;BME280;24875;48.436;10.298;2024-01-10T08:43:46;97073.28;;;-1.82;100.00
39141;BME280;24875;48.436;10.298;2024-01-10T08:46:12;97066.59;;;-1.86;100.00
39141;BME280;24875;48.436;10.298;2024-01-10T08:48:39;97059.63;;;-1.69;100.00
39141;BME280;24875;48.436;10.298;2024-01-10T08:51:05;97065.78;;;-1.86;100.00
39141;BME280;24875;48.436;10.298;2024-01-10T08:53:34;97070.38;;;-1.76;100.00
39141;BME280;24875;48.436;10.298;2024-01-10T08:56:01;97070.78;;;-1.68;100.00
39141;BME280;24875;48.436;10.298;2024-01-10T08:58:27;97082.00;;;-2.00;100.00
39141;BME280;24875;48.436;10.298;2024-01-10T09:00:55;97077.19;;;-1.60;100.00
39141;BME280;24875;48.436;10.298;2024-01-10T09:03:22;97090.41;;;-2.12;100.00
39141;BME280;24875;48.436;10.298;2024-01-10T09:05:48;97085.44;;;-1.84;100.00
39141;BME280;24875;48.436;10.298;2024-01-10T09:08:15;97086.13;;;-1.65;100.00
39141;BME280;24875;48.436;10.298;2024-01-10T09:10:42;97089.63;;;-1.66;100.00
39141;BME280;24875;48.436;10.298;2024-01-10T09:13:08;97092.28;;;-1.52;100.00
39141;BME280;24875;48.436;10.298;2024-01-10T09:15:35;97092.53;;;-1.57;100.00
39141;BME280;24875;48.436;10.298;2024-01-10T09:18:03;97101.38;;;-1.61;100.00
39141;BME280;24875;48.436;10.298;2024-01-10T09:20:30;97093.38;;;-1.56;100.00
39141;BME280;24875;48.436;10.298;2024-01-10T09:22:56;97092.97;;;-1.49;100.00
39141;BME280;24875;48.436;10.298;2024-01-10T09:25:25;97099.22;;;-1.37;100.00
39141;BME280;24875;48.436;10.298;2024-01-10T09:27:51;97094.75;;;-1.20;100.00
39141;BME280;24875;48.436;10.298;2024-01-10T09:30:18;97098.06;;;-1.03;100.00
39141;BME280;24875;48.436;10.298;2024-01-10T09:32:45;97102.00;;;-1.26;100.00
39141;BME280;24875;48.436;10.298;2024-01-10T09:35:13;97095.69;;;-0.92;100.00
39141;BME280;24875;48.436;10.298;2024-01-10T09:37:40;97098.19;;;-0.90;100.00
39141;BME280;24875;48.436;10.298;2024-01-10T09:40:08;97103.53;;;-0.64;100.00
39141;BME280;24875;48.436;10.298;2024-01-10T09:42:35;97099.69;;;-0.15;100.00
39141;BME280;24875;48.436;10.298;2024-01-10T09:45:04;97102.75;;;0.99;100.00
39141;BME280;24875;48.436;10.298;2024-01-10T09:47:32;97094.03;;;1.00;100.00
39141;BME280;24875;48.436;10.298;2024-01-10T09:49:59;97103.75;;;0.30;100.00
39141;BME280;24875;48.436;10.298;2024-01-10T09:52:28;97102.59;;;0.08;100.00
39141;BME280;24875;48.436;10.298;2024-01-10T09:54:57;97114.69;;;0.21;100.00
39141;BME280;24875;48.436;10.298;2024-01-10T09:57:24;97108.97;;;0.02;100.00
39141;BME280;24875;48.436;10.298;2024-01-10T09:59:51;97109.16;;;-0.01;100.00
39141;BME280;24875;48.436;10.298;2024-01-10T10:02:18;97107.88;;;-0.21;100.00
39141;BME280;24875;48.436;10.298;2024-01-10T10:04:52;97105.75;;;-0.58;100.00
39141;BME280;24875;48.436;10.298;2024-01-10T10:07:20;97101.31;;;-0.70;100.00
39141;BME280;24875;48.436;10.298;2024-01-10T10:09:48;97106.69;;;-0.59;100.00
39141;BME280;24875;48.436;10.298;2024-01-10T10:12:14;97099.25;;;-0.65;100.00
39141;BME280;24875;48.436;10.298;2024-01-10T10:14:40;97100.31;;;-0.83;100.00
39141;BME280;24875;48.436;10.298;2024-01-10T10:17:14;97095.59;;;-0.61;100.00
39141;BME280;24875;48.436;10.298;2024-01-10T10:19:41;97103.44;;;-1.36;100.00
39141;BME280;24875;48.436;10.298;2024-01-10T10:22:08;97096.16;;;-1.15;100.00
39141;BME280;24875;48.436;10.298;2024-01-10T10:24:35;97099.56;;;-0.99;100.00
39141;BME280;24875;48.436;10.298;2024-01-10T10:27:07;97103.94;;;-0.42;100.00
39141;BME280;24875;48.436;10.298;2024-01-10T10:29:35;97096.63;;;-0.36;100.00
39141;BME280;24875;48.436;10.298;2024-01-10T10:32:02;97101.75;;;-0.34;100.00
39141;BME280;24875;48.436;10.298;2024-01-10T10:34:31;97100.81;;;-0.19;100.00
39141;BME280;24875;48.436;10.298;2024-01-10T10:36:57;97100.53;;;-0.29;100.00
39141;BME280;24875;48.436;10.298;2024-01-10T10:39:24;97103.88;;;0.01;100.00
39141;BME280;24875;48.436;10.298;2024-01-10T10:41:51;97092.69;;;-0.13;100.00
39141;BME280;24875;48.436;10.298;2024-01-10T10:44:23;97101.19;;;0.16;100.00
39141;BME280;24875;48.436;10.298;2024-01-10T10:46:53;97094.03;;;0.34;100.00
39141;BME280;24875;48.436;10.298;2024-01-10T10:49:28;97094.28;;;0.43;100.00
39141;BME280;24875;48.436;10.298;2024-01-10T10:51:57;97099.31;;;0.46;100.00
39141;BME280;24875;48.436;10.298;2024-01-10T10:54:25;97087.50;;;0.55;100.00
39141;BME280;24875;48.436;10.298;2024-01-10T10:56:54;97091.22;;;0.10;100.00
39141;BME280;24875;48.436;10.298;2024-01-10T10:59:26;97091.88;;;0.54;100.00
39141;BME280;24875;48.436;10.298;2024-01-10T11:01:53;97089.75;;;0.47;100.00
39141;BME280;24875;48.436;10.298;2024-01-10T11:04:21;97090.97;;;0.55;100.00
39141;BME280;24875;48.436;10.298;2024-01-10T11:06:47;97087.84;;;0.36;100.00
39141;BME280;24875;48.436;10.298;2024-01-10T11:09:17;97089.69;;;0.34;100.00
39141;BME280;24875;48.436;10.298;2024-01-10T11:12:09;97076.91;;;0.45;100.00
39141;BME280;24875;48.436;10.298;2024-01-10T11:14:54;97079.16;;;0.23;100.00
39141;BME280;24875;48.436;10.298;2024-01-10T11:17:57;97080.25;;;0.33;100.00
39141;BME280;24875;48.436;10.298;2024-01-10T11:20:47;97081.84;;;0.36;100.00
39141;BME280;24875;48.436;10.298;2024-01-10T11:23:31;97083.41;;;0.64;100.00
39141;BME280;24875;48.436;10.298;2024-01-10T11:26:02;97081.72;;;0.37;100.00
39141;BME280;24875;48.436;10.298;2024-01-10T11:28:30;97082.97;;;0.58;100.00
39141;BME280;24875;48.436;10.298;2024-01-10T11:30:58;97079.25;;;0.62;100.00
39141;BME280;24875;48.436;10.298;2024-01-10T11:33:30;97082.59;;;0.64;100.00
39141;BME280;24875;48.436;10.298;2024-01-10T11:36:15;97080.94;;;0.63;100.00
39141;BME280;24875;48.436;10.298;2024-01-10T11:38:44;97075.16;;;0.72;100.00
39141;BME280;24875;48.436;10.298;2024-01-10T11:41:11;97072.84;;;0.94;100.00
39141;BME280;24875;48.436;10.298;2024-01-10T11:43:38;97075.47;;;1.06;100.00
39141;BME280;24875;48.436;10.298;2024-01-10T11:46:06;97072.13;;;0.92;100.00
39141;BME280;24875;48.436;10.298;2024-01-10T11:48:32;97068.03;;;0.75;100.00
39141;BME280;24875;48.436;10.298;2024-01-10T11:50:59;97064.28;;;0.79;100.00
39141;BME280;24875;48.436;10.298;2024-01-10T11:53:42;97069.25;;;1.09;100.00
39141;BME280;24875;48.436;10.298;2024-01-10T11:56:12;97065.06;;;0.94;100.00
39141;BME280;24875;48.436;10.298;2024-01-10T11:59:01;97071.59;;;0.87;100.00
39141;BME280;24875;48.436;10.298;2024-01-10T12:01:30;97062.81;;;0.49;100.00
39141;BME280;24875;48.436;10.298;2024-01-10T12:03:58;97072.88;;;-0.01;100.00
39141;BME280;24875;48.436;10.298;2024-01-10T12:06:25;97073.78;;;0.26;100.00
39141;BME280;24875;48.436;10.298;2024-01-10T12:08:52;97056.84;;;0.61;100.00
39141;BME280;24875;48.436;10.298;2024-01-10T12:11:18;97066.31;;;0.48;100.00
39141;BME280;24875;48.436;10.298;2024-01-10T12:13:45;97068.13;;;0.74;100.00
39141;BME280;24875;48.436;10.298;2024-01-10T12:16:12;97066.38;;;1.25;100.00
39141;BME280;24875;48.436;10.298;2024-01-10T12:18:40;97056.78;;;1.65;100.00
39141;BME280;24875;48.436;10.298;2024-01-10T12:21:06;97050.84;;;1.63;100.00
39141;BME280;24875;48.436;10.298;2024-01-10T12:23:35;97052.09;;;1.57;100.00
39141;BME280;24875;48.436;10.298;2024-01-10T12:26:04;97055.53;;;1.70;100.00
39141;BME280;24875;48.436;10.298;2024-01-10T12:28:33;97054.56;;;1.46;100.00
39141;BME280;24875;48.436;10.298;2024-01-10T12:30:59;97061.34;;;1.74;100.00
39141;BME280;24875;48.436;10.298;2024-01-10T12:33:26;97057.06;;;1.35;100.00
39141;BME280;24875;48.436;10.298;2024-01-10T12:36:04;97051.88;;;1.73;100.00
39141;BME280;24875;48.436;10.298;2024-01-10T12:38:32;97050.84;;;2.00;100.00
39141;BME280;24875;48.436;10.298;2024-01-10T12:40:59;97055.19;;;2.12;100.00
39141;BME280;24875;48.436;10.298;2024-01-10T12:43:25;97062.91;;;1.76;100.00
39141;BME280;24875;48.436;10.298;2024-01-10T12:46:02;97052.28;;;1.79;100.00